sensor_id;sensor_type;location;lat;lon;timestamp;temperature;humidity
23703;DHT22;12030;50.376;8.762;2023-08-06T00:01:39;16.40;99.90
23703;DHT22;12030;50.376;8.762;2023-08-06T00:04:05;16.40;99.90
23703;DHT22;12030;50.376;8.762;2023-08-06T00:06:30;16.40;99.90
23703;DHT22;12030;50.376;8.762;2023-08-06T00:08:56;16.50;99.90
23703;DHT22;12030;50.376;8.762;2023-08-06T00:11:21;16.50;99.90
23703;DHT22;12030;50.376;8.762;2023-08-06T00:13:48;16.50;99.90
23703;DHT22;12030;50.376;8.762;2023-08-06T00:16:14;16.50;99.90
23703;DHT22;12030;50.376;8.762;2023-08-06T00:18:40;16.40;99.90
23703;DHT22;12030;50.376;8.762;2023-08-06T00:21:05;16.50;99.90
23703;DHT22;12030;50.376;8.762;2023-08-06T00:23:31;16.40;99.90
23703;DHT22;12030;50.376;8.762;2023-08-06T00:25:57;16.50;99.90
23703;DHT22;12030;50.376;8.762;2023-08-06T00:28:22;16.40;99.90
23703;DHT22;12030;50.376;8.762;2023-08-06T00:30:55;16.40;99.90
23703;DHT22;12030;50.376;8.762;2023-08-06T00:33:21;16.40;99.90
23703;DHT22;12030;50.376;8.762;2023-08-06T00:35:47;16.50;99.90
23703;DHT22;12030;50.376;8.762;2023-08-06T00:38:12;16.40;99.90
23703;DHT22;12030;50.376;8.762;2023-08-06T00:40:38;16.40;99.90
23703;DHT22;12030;50.376;8.762;2023-08-06T00:43:04;16.40;99.90
23703;DHT22;12030;50.376;8.762;2023-08-06T00:45:30;16.40;99.90
23703;DHT22;12030;50.376;8.762;2023-08-06T00:47:59;16.40;99.90
23703;DHT22;12030;50.376;8.762;2023-08-06T00:50:25;16.40;99.90
23703;DHT22;12030;50.376;8.762;2023-08-06T00:52:51;16.40;99.90
23703;DHT22;12030;50.376;8.762;2023-08-06T00:55:17;16.40;99.90
23703;DHT22;12030;50.376;8.762;2023-08-06T00:57:42;16.40;99.90
23703;DHT22;12030;50.376;8.762;2023-08-06T01:00:09;16.40;99.90
23703;DHT22;12030;50.376;8.762;2023-08-06T01:02:34;16.40;99.90
23703;DHT22;12030;50.376;8.762;2023-08-06T01:05:00;16.40;99.90
23703;DHT22;12030;50.376;8.762;2023-08-06T01:07:37;16.30;99.90
23703;DHT22;12030;50.376;8.762;2023-08-06T01:11:05;16.30;99.90
23703;DHT22;12030;50.376;8.762;2023-08-06T01:13:13;16.30;99.90
23703;DHT22;12030;50.376;8.762;2023-08-06T01:15:49;16.30;99.90
23703;DHT22;12030;50.376;8.762;2023-08-06T01:18:16;16.20;99.90
23703;DHT22;12030;50.376;8.762;2023-08-06T01:20:42;16.30;99.90
23703;DHT22;12030;50.376;8.762;2023-08-06T01:23:08;16.30;99.90
23703;DHT22;12030;50.376;8.762;2023-08-06T01:25:36;16.20;99.90
23703;DHT22;12030;50.376;8.762;2023-08-06T01:28:13;16.20;99.90
23703;DHT22;12030;50.376;8.762;2023-08-06T01:30:41;16.20;99.90
23703;DHT22;12030;50.376;8.762;2023-08-06T01:33:11;16.20;99.90
23703;DHT22;12030;50.376;8.762;2023-08-06T01:35:39;16.20;99.90
23703;DHT22;12030;50.376;8.762;2023-08-06T01:38:06;16.20;99.90
23703;DHT22;12030;50.376;8.762;2023-08-06T01:40:31;16.10;99.90
23703;DHT22;12030;50.376;8.762;2023-08-06T01:42:57;16.10;99.90
23703;DHT22;12030;50.376;8.762;2023-08-06T01:45:23;16.10;99.90
23703;DHT22;12030;50.376;8.762;2023-08-06T01:47:48;16.10;99.90
23703;DHT22;12030;50.376;8.762;2023-08-06T01:50:14;16.10;99.90
23703;DHT22;12030;50.376;8.762;2023-08-06T01:52:39;16.00;99.90
23703;DHT22;12030;50.376;8.762;2023-08-06T01:55:05;16.10;99.90
23703;DHT22;12030;50.376;8.762;2023-08-06T01:57:31;16.10;99.90
23703;DHT22;12030;50.376;8.762;2023-08-06T01:59:56;16.00;99.90
23703;DHT22;12030;50.376;8.762;2023-08-06T02:02:22;16.00;99.90
23703;DHT22;12030;50.376;8.762;2023-08-06T02:04:47;15.90;99.90
23703;DHT22;12030;50.376;8.762;2023-08-06T02:07:13;15.90;99.90
23703;DHT22;12030;50.376;8.762;2023-08-06T02:09:38;15.90;99.90
23703;DHT22;12030;50.376;8.762;2023-08-06T02:12:05;15.90;99.90
23703;DHT22;12030;50.376;8.762;2023-08-06T02:14:31;15.90;99.90
23703;DHT22;12030;50.376;8.762;2023-08-06T02:16:57;15.90;99.90
23703;DHT22;12030;50.376;8.762;2023-08-06T02:19:23;15.90;99.90
23703;DHT22;12030;50.376;8.762;2023-08-06T02:21:48;15.90;99.90
23703;DHT22;12030;50.376;8.762;2023-08-06T02:24:14;15.90;99.90
23703;DHT22;12030;50.376;8.762;2023-08-06T02:26:39;15.90;99.90
23703;DHT22;12030;50.376;8.762;2023-08-06T02:29:05;15.90;99.90
23703;DHT22;12030;50.376;8.762;2023-08-06T02:31:30;15.90;99.90
23703;DHT22;12030;50.376;8.762;2023-08-06T02:33:56;15.90;99.90
23703;DHT22;12030;50.376;8.762;2023-08-06T02:36:22;15.90;99.90
23703;DHT22;12030;50.376;8.762;2023-08-06T02:38:48;16.00;99.90
23703;DHT22;12030;50.376;8.762;2023-08-06T02:41:13;15.90;99.90
23703;DHT22;12030;50.376;8.762;2023-08-06T02:43:39;16.00;99.90
23703;DHT22;12030;50.376;8.762;2023-08-06T02:46:04;16.00;99.90
23703;DHT22;12030;50.376;8.762;2023-08-06T02:48:30;16.00;99.90
23703;DHT22;12030;50.376;8.762;2023-08-06T02:50:59;16.00;99.90
23703;DHT22;12030;50.376;8.762;2023-08-06T02:53:25;16.00;99.90
23703;DHT22;12030;50.376;8.762;2023-08-06T02:55:50;16.00;99.90
23703;DHT22;12030;50.376;8.762;2023-08-06T02:58:16;16.00;99.90
23703;DHT22;12030;50.376;8.762;2023-08-06T03:00:42;16.00;99.90
23703;DHT22;12030;50.376;8.762;2023-08-06T03:03:08;16.00;99.90
23703;DHT22;12030;50.376;8.762;2023-08-06T03:05:34;16.00;99.90
23703;DHT22;12030;50.376;8.762;2023-08-06T03:07:59;16.00;99.90
23703;DHT22;12030;50.376;8.762;2023-08-06T03:10:25;16.00;99.90
23703;DHT22;12030;50.376;8.762;2023-08-06T03:12:50;16.00;99.90
23703;DHT22;12030;50.376;8.762;2023-08-06T03:15:16;16.00;99.90
23703;DHT22;12030;50.376;8.762;2023-08-06T03:17:41;15.90;99.90
23703;DHT22;12030;50.376;8.762;2023-08-06T03:20:07;16.00;99.90
23703;DHT22;12030;50.376;8.762;2023-08-06T03:22:33;15.90;99.90
23703;DHT22;12030;50.376;8.762;2023-08-06T03:24:58;16.00;99.90
23703;DHT22;12030;50.376;8.762;2023-08-06T03:27:24;16.00;99.90
23703;DHT22;12030;50.376;8.762;2023-08-06T03:29:50;16.00;99.90
23703;DHT22;12030;50.376;8.762;2023-08-06T03:32:15;15.90;99.90
23703;DHT22;12030;50.376;8.762;2023-08-06T03:34:41;15.90;99.90
23703;DHT22;12030;50.376;8.762;2023-08-06T03:37:06;15.90;99.90
23703;DHT22;12030;50.376;8.762;2023-08-06T03:39:32;15.90;99.90
23703;DHT22;12030;50.376;8.762;2023-08-06T03:41:57;15.90;99.90
23703;DHT22;12030;50.376;8.762;2023-08-06T03:44:23;15.90;99.90
23703;DHT22;12030;50.376;8.762;2023-08-06T03:46:48;15.80;99.90
23703;DHT22;12030;50.376;8.762;2023-08-06T03:49:14;15.80;99.90
23703;DHT22;12030;50.376;8.762;2023-08-06T03:51:39;15.80;99.90
23703;DHT22;12030;50.376;8.762;2023-08-06T03:54:05;15.80;99.90
23703;DHT22;12030;50.376;8.762;2023-08-06T03:56:30;15.80;99.90
23703;DHT22;12030;50.376;8.762;2023-08-06T03:58:56;15.80;99.90
23703;DHT22;12030;50.376;8.762;2023-08-06T04:01:22;15.80;99.90
23703;DHT22;12030;50.376;8.762;2023-08-06T04:03:47;15.80;99.90
23703;DHT22;12030;50.376;8.762;2023-08-06T04:06:13;15.80;99.90
23703;DHT22;12030;50.376;8.762;2023-08-06T04:08:38;15.80;99.90
23703;DHT22;12030;50.376;8.762;2023-08-06T04:11:04;15.70;99.90
23703;DHT22;12030;50.376;8.762;2023-08-06T04:13:29;15.80;99.90
23703;DHT22;12030;50.376;8.762;2023-08-06T04:15:55;15.80;99.90
23703;DHT22;12030;50.376;8.762;2023-08-06T04:18:20;15.80;99.90
23703;DHT22;12030;50.376;8.762;2023-08-06T04:20:47;15.90;99.90
23703;DHT22;12030;50.376;8.762;2023-08-06T04:23:14;15.80;99.90
23703;DHT22;12030;50.376;8.762;2023-08-06T04:25:40;15.90;99.90
23703;DHT22;12030;50.376;8.762;2023-08-06T04:28:07;15.90;99.90
23703;DHT22;12030;50.376;8.762;2023-08-06T04:30:33;15.90;99.90
23703;DHT22;12030;50.376;8.762;2023-08-06T04:32:58;15.90;99.90
23703;DHT22;12030;50.376;8.762;2023-08-06T04:35:24;15.90;99.90
23703;DHT22;12030;50.376;8.762;2023-08-06T04:37:50;15.90;99.90
23703;DHT22;12030;50.376;8.762;2023-08-06T04:40:15;15.90;99.90
23703;DHT22;12030;50.376;8.762;2023-08-06T04:42:41;16.00;99.90
23703;DHT22;12030;50.376;8.762;2023-08-06T04:45:07;16.00;99.90
23703;DHT22;12030;50.376;8.762;2023-08-06T04:47:32;16.00;99.90
23703;DHT22;12030;50.376;8.762;2023-08-06T04:49:58;16.00;99.90
23703;DHT22;12030;50.376;8.762;2023-08-06T04:52:23;16.00;99.90
23703;DHT22;12030;50.376;8.762;2023-08-06T04:54:52;16.10;99.90
23703;DHT22;12030;50.376;8.762;2023-08-06T04:57:18;16.00;99.90
23703;DHT22;12030;50.376;8.762;2023-08-06T04:59:44;16.10;99.90
23703;DHT22;12030;50.376;8.762;2023-08-06T05:02:09;16.10;99.90
23703;DHT22;12030;50.376;8.762;2023-08-06T05:04:34;16.10;99.90
23703;DHT22;12030;50.376;8.762;2023-08-06T05:07:00;16.10;99.90
23703;DHT22;12030;50.376;8.762;2023-08-06T05:09:26;16.10;99.90
23703;DHT22;12030;50.376;8.762;2023-08-06T05:11:51;16.10;99.90
23703;DHT22;12030;50.376;8.762;2023-08-06T05:14:17;16.10;99.90
23703;DHT22;12030;50.376;8.762;2023-08-06T05:16:42;16.10;99.90
23703;DHT22;12030;50.376;8.762;2023-08-06T05:19:08;16.20;99.90
23703;DHT22;12030;50.376;8.762;2023-08-06T05:21:33;16.20;99.90
23703;DHT22;12030;50.376;8.762;2023-08-06T05:23:59;16.20;99.90
23703;DHT22;12030;50.376;8.762;2023-08-06T05:26:24;16.20;99.90
23703;DHT22;12030;50.376;8.762;2023-08-06T05:28:50;16.20;99.90
23703;DHT22;12030;50.376;8.762;2023-08-06T05:31:15;16.20;99.90
23703;DHT22;12030;50.376;8.762;2023-08-06T05:33:41;16.20;99.90
23703;DHT22;12030;50.376;8.762;2023-08-06T05:36:06;16.30;99.90
23703;DHT22;12030;50.376;8.762;2023-08-06T05:38:32;16.40;99.90
23703;DHT22;12030;50.376;8.762;2023-08-06T05:40:57;16.40;99.90
23703;DHT22;12030;50.376;8.762;2023-08-06T05:43:23;16.50;99.90
23703;DHT22;12030;50.376;8.762;2023-08-06T05:45:51;16.50;99.90
23703;DHT22;12030;50.376;8.762;2023-08-06T05:48:17;16.60;99.90
23703;DHT22;12030;50.376;8.762;2023-08-06T05:50:42;16.60;99.90
23703;DHT22;12030;50.376;8.762;2023-08-06T05:53:08;16.60;99.90
23703;DHT22;12030;50.376;8.762;2023-08-06T05:55:34;16.60;99.90
23703;DHT22;12030;50.376;8.762;2023-08-06T05:57:59;16.60;99.90
23703;DHT22;12030;50.376;8.762;2023-08-06T06:00:25;16.60;99.90
23703;DHT22;12030;50.376;8.762;2023-08-06T06:02:51;16.60;99.90
23703;DHT22;12030;50.376;8.762;2023-08-06T06:05:16;16.60;99.90
23703;DHT22;12030;50.376;8.762;2023-08-06T06:07:42;16.60;99.90
23703;DHT22;12030;50.376;8.762;2023-08-06T06:10:07;16.50;99.90
23703;DHT22;12030;50.376;8.762;2023-08-06T06:12:33;16.50;99.90
23703;DHT22;12030;50.376;8.762;2023-08-06T06:14:59;16.40;99.90
23703;DHT22;12030;50.376;8.762;2023-08-06T06:17:26;16.40;99.90
23703;DHT22;12030;50.376;8.762;2023-08-06T06:19:52;16.50;99.90
23703;DHT22;12030;50.376;8.762;2023-08-06T06:22:17;16.50;99.90
23703;DHT22;12030;50.376;8.762;2023-08-06T06:24:43;16.50;99.90
23703;DHT22;12030;50.376;8.762;2023-08-06T06:27:09;16.60;99.90
23703;DHT22;12030;50.376;8.762;2023-08-06T06:29:34;16.70;99.90
23703;DHT22;12030;50.376;8.762;2023-08-06T06:32:00;16.80;99.90
23703;DHT22;12030;50.376;8.762;2023-08-06T06:34:25;16.90;99.90
23703;DHT22;12030;50.376;8.762;2023-08-06T06:36:51;16.90;99.90
23703;DHT22;12030;50.376;8.762;2023-08-06T06:39:17;17.00;99.90
23703;DHT22;12030;50.376;8.762;2023-08-06T06:41:43;17.00;99.90
23703;DHT22;12030;50.376;8.762;2023-08-06T06:44:09;17.00;99.90
23703;DHT22;12030;50.376;8.762;2023-08-06T06:46:35;16.90;99.90
23703;DHT22;12030;50.376;8.762;2023-08-06T06:49:00;17.00;99.90
23703;DHT22;12030;50.376;8.762;2023-08-06T06:51:26;17.00;99.90
23703;DHT22;12030;50.376;8.762;2023-08-06T06:53:51;17.00;99.90
23703;DHT22;12030;50.376;8.762;2023-08-06T06:56:17;17.00;99.90
23703;DHT22;12030;50.376;8.762;2023-08-06T06:58:42;16.90;99.90
23703;DHT22;12030;50.376;8.762;2023-08-06T07:01:09;16.80;99.90
23703;DHT22;12030;50.376;8.762;2023-08-06T07:03:37;16.80;99.90
23703;DHT22;12030;50.376;8.762;2023-08-06T07:06:02;16.80;99.90
23703;DHT22;12030;50.376;8.762;2023-08-06T07:08:29;16.70;99.90
23703;DHT22;12030;50.376;8.762;2023-08-06T07:11:05;16.80;99.90
23703;DHT22;12030;50.376;8.762;2023-08-06T07:13:31;16.60;99.90
23703;DHT22;12030;50.376;8.762;2023-08-06T07:15:56;16.60;99.90
23703;DHT22;12030;50.376;8.762;2023-08-06T07:18:23;16.50;99.90
23703;DHT22;12030;50.376;8.762;2023-08-06T07:20:52;16.60;99.90
23703;DHT22;12030;50.376;8.762;2023-08-06T07:23:22;16.60;99.90
23703;DHT22;12030;50.376;8.762;2023-08-06T07:25:48;16.50;99.90
23703;DHT22;12030;50.376;8.762;2023-08-06T07:28:14;16.50;99.90
23703;DHT22;12030;50.376;8.762;2023-08-06T07:30:41;16.50;99.90
23703;DHT22;12030;50.376;8.762;2023-08-06T07:33:06;16.60;99.90
23703;DHT22;12030;50.376;8.762;2023-08-06T07:35:32;16.70;99.90
23703;DHT22;12030;50.376;8.762;2023-08-06T07:37:58;16.70;99.90
23703;DHT22;12030;50.376;8.762;2023-08-06T07:40:24;16.70;99.90
23703;DHT22;12030;50.376;8.762;2023-08-06T07:42:49;16.70;99.90
23703;DHT22;12030;50.376;8.762;2023-08-06T07:45:15;16.70;99.90
23703;DHT22;12030;50.376;8.762;2023-08-06T07:47:40;16.70;99.90
23703;DHT22;12030;50.376;8.762;2023-08-06T07:50:07;16.80;99.90
23703;DHT22;12030;50.376;8.762;2023-08-06T07:52:32;16.70;99.90
23703;DHT22;12030;50.376;8.762;2023-08-06T07:54:58;16.70;99.90
23703;DHT22;12030;50.376;8.762;2023-08-06T07:57:24;16.60;99.90
23703;DHT22;12030;50.376;8.762;2023-08-06T07:59:49;16.60;99.90
23703;DHT22;12030;50.376;8.762;2023-08-06T08:02:15;16.60;99.90
23703;DHT22;12030;50.376;8.762;2023-08-06T08:04:41;16.60;99.90
23703;DHT22;12030;50.376;8.762;2023-08-06T08:07:06;16.70;99.90
23703;DHT22;12030;50.376;8.762;2023-08-06T08:09:32;16.60;99.90
23703;DHT22;12030;50.376;8.762;2023-08-06T08:11:57;16.70;99.90
23703;DHT22;12030;50.376;8.762;2023-08-06T08:14:24;16.80;99.90
23703;DHT22;12030;50.376;8.762;2023-08-06T08:16:49;16.90;99.90
23703;DHT22;12030;50.376;8.762;2023-08-06T08:19:15;16.90;99.90
23703;DHT22;12030;50.376;8.762;2023-08-06T08:21:40;17.00;99.90
23703;DHT22;12030;50.376;8.762;2023-08-06T08:24:06;17.10;99.90
23703;DHT22;12030;50.376;8.762;2023-08-06T08:26:31;17.10;99.90
23703;DHT22;12030;50.376;8.762;2023-08-06T08:28:57;17.20;99.90
23703;DHT22;12030;50.376;8.762;2023-08-06T08:31:23;17.20;99.90
23703;DHT22;12030;50.376;8.762;2023-08-06T08:33:48;17.30;99.90
23703;DHT22;12030;50.376;8.762;2023-08-06T08:36:14;17.50;99.90
23703;DHT22;12030;50.376;8.762;2023-08-06T08:38:39;17.60;99.90
23703;DHT22;12030;50.376;8.762;2023-08-06T08:41:05;17.70;99.90
23703;DHT22;12030;50.376;8.762;2023-08-06T08:43:31;17.90;99.90
23703;DHT22;12030;50.376;8.762;2023-08-06T08:45:57;18.00;99.90
23703;DHT22;12030;50.376;8.762;2023-08-06T08:48:27;18.00;99.90
23703;DHT22;12030;50.376;8.762;2023-08-06T08:50:53;18.30;99.90
23703;DHT22;12030;50.376;8.762;2023-08-06T08:53:21;18.40;99.90
23703;DHT22;12030;50.376;8.762;2023-08-06T08:55:48;18.60;99.90
23703;DHT22;12030;50.376;8.762;2023-08-06T08:58:14;18.70;99.90
23703;DHT22;12030;50.376;8.762;2023-08-06T09:00:45;18.80;99.90
23703;DHT22;12030;50.376;8.762;2023-08-06T09:03:11;19.10;99.90
23703;DHT22;12030;50.376;8.762;2023-08-06T09:05:43;19.00;99.90
23703;DHT22;12030;50.376;8.762;2023-08-06T09:08:11;19.10;99.90
23703;DHT22;12030;50.376;8.762;2023-08-06T09:10:40;19.20;99.90
23703;DHT22;12030;50.376;8.762;2023-08-06T09:13:06;19.30;99.90
23703;DHT22;12030;50.376;8.762;2023-08-06T09:15:32;19.50;99.90
23703;DHT22;12030;50.376;8.762;2023-08-06T09:17:58;19.70;99.90
23703;DHT22;12030;50.376;8.762;2023-08-06T09:20:24;19.90;99.90
23703;DHT22;12030;50.376;8.762;2023-08-06T09:22:52;19.80;99.90
23703;DHT22;12030;50.376;8.762;2023-08-06T09:25:22;19.90;99.90
23703;DHT22;12030;50.376;8.762;2023-08-06T09:27:50;19.90;99.90
23703;DHT22;12030;50.376;8.762;2023-08-06T09:30:34;19.70;99.90
23703;DHT22;12030;50.376;8.762;2023-08-06T09:32:59;19.60;99.90
23703;DHT22;12030;50.376;8.762;2023-08-06T09:35:28;19.70;99.90
23703;DHT22;12030;50.376;8.762;2023-08-06T09:37:54;19.70;99.90
23703;DHT22;12030;50.376;8.762;2023-08-06T09:40:30;19.80;99.90
23703;DHT22;12030;50.376;8.762;2023-08-06T09:42:57;20.00;99.90
23703;DHT22;12030;50.376;8.762;2023-08-06T09:45:28;20.00;99.90
23703;DHT22;12030;50.376;8.762;2023-08-06T09:47:59;20.10;99.90
23703;DHT22;12030;50.376;8.762;2023-08-06T09:50:30;20.30;99.90
23703;DHT22;12030;50.376;8.762;2023-08-06T09:53:03;20.50;99.90
23703;DHT22;12030;50.376;8.762;2023-08-06T09:55:29;20.50;99.90
23703;DHT22;12030;50.376;8.762;2023-08-06T09:57:55;20.70;99.90
23703;DHT22;12030;50.376;8.762;2023-08-06T10:00:22;20.70;99.90
23703;DHT22;12030;50.376;8.762;2023-08-06T10:02:49;20.80;99.90
23703;DHT22;12030;50.376;8.762;2023-08-06T10:05:17;20.90;99.90
23703;DHT22;12030;50.376;8.762;2023-08-06T10:07:44;20.90;99.90
23703;DHT22;12030;50.376;8.762;2023-08-06T10:10:10;20.80;99.90
23703;DHT22;12030;50.376;8.762;2023-08-06T10:12:40;20.70;99.90
23703;DHT22;12030;50.376;8.762;2023-08-06T10:15:11;20.50;99.90
23703;DHT22;12030;50.376;8.762;2023-08-06T10:17:38;20.30;99.90
23703;DHT22;12030;50.376;8.762;2023-08-06T10:20:05;20.20;99.90
23703;DHT22;12030;50.376;8.762;2023-08-06T10:22:33;20.30;99.90
23703;DHT22;12030;50.376;8.762;2023-08-06T10:25:00;20.20;99.90
23703;DHT22;12030;50.376;8.762;2023-08-06T10:28:06;20.30;99.90
23703;DHT22;12030;50.376;8.762;2023-08-06T10:32:52;20.50;99.90
23703;DHT22;12030;50.376;8.762;2023-08-06T10:40:36;20.40;99.90
23703;DHT22;12030;50.376;8.762;2023-08-06T10:43:03;20.40;99.90
23703;DHT22;12030;50.376;8.762;2023-08-06T10:45:29;20.40;99.90
23703;DHT22;12030;50.376;8.762;2023-08-06T10:47:56;20.40;99.90
23703;DHT22;12030;50.376;8.762;2023-08-06T10:50:25;20.60;99.90
23703;DHT22;12030;50.376;8.762;2023-08-06T10:52:52;20.80;99.90
23703;DHT22;12030;50.376;8.762;2023-08-06T10:55:29;21.10;99.90
23703;DHT22;12030;50.376;8.762;2023-08-06T10:57:56;21.20;99.90
23703;DHT22;12030;50.376;8.762;2023-08-06T11:00:22;21.30;99.90
23703;DHT22;12030;50.376;8.762;2023-08-06T11:02:49;21.30;99.90
23703;DHT22;12030;50.376;8.762;2023-08-06T11:05:15;21.40;99.90
23703;DHT22;12030;50.376;8.762;2023-08-06T11:07:42;21.60;99.90
23703;DHT22;12030;50.376;8.762;2023-08-06T11:10:10;21.80;99.90
23703;DHT22;12030;50.376;8.762;2023-08-06T11:12:35;21.80;99.90
23703;DHT22;12030;50.376;8.762;2023-08-06T11:15:02;21.80;99.90
23703;DHT22;12030;50.376;8.762;2023-08-06T11:17:29;22.00;99.90
23703;DHT22;12030;50.376;8.762;2023-08-06T11:19:55;22.00;99.90
23703;DHT22;12030;50.376;8.762;2023-08-06T11:22:21;21.90;99.90
23703;DHT22;12030;50.376;8.762;2023-08-06T11:24:47;21.80;99.90
23703;DHT22;12030;50.376;8.762;2023-08-06T11:27:14;21.80;99.90
23703;DHT22;12030;50.376;8.762;2023-08-06T11:29:40;21.50;99.90
23703;DHT22;12030;50.376;8.762;2023-08-06T11:32:07;21.30;99.90
23703;DHT22;12030;50.376;8.762;2023-08-06T11:34:33;20.70;99.90
23703;DHT22;12030;50.376;8.762;2023-08-06T11:36:59;20.00;99.90
23703;DHT22;12030;50.376;8.762;2023-08-06T11:39:24;19.50;99.90
23703;DHT22;12030;50.376;8.762;2023-08-06T11:41:50;19.40;99.90
23703;DHT22;12030;50.376;8.762;2023-08-06T11:44:19;19.40;99.90
23703;DHT22;12030;50.376;8.762;2023-08-06T11:46:55;19.40;99.90
23703;DHT22;12030;50.376;8.762;2023-08-06T11:49:42;19.30;99.90
23703;DHT22;12030;50.376;8.762;2023-08-06T11:52:20;19.30;99.90
23703;DHT22;12030;50.376;8.762;2023-08-06T11:57:25;19.40;99.90
23703;DHT22;12030;50.376;8.762;2023-08-06T11:59:50;19.30;99.90
23703;DHT22;12030;50.376;8.762;2023-08-06T12:02:16;19.30;99.90
23703;DHT22;12030;50.376;8.762;2023-08-06T12:04:59;19.10;99.90
23703;DHT22;12030;50.376;8.762;2023-08-06T12:07:32;18.70;99.90
23703;DHT22;12030;50.376;8.762;2023-08-06T12:09:59;18.30;99.90
23703;DHT22;12030;50.376;8.762;2023-08-06T12:12:25;18.00;99.90
23703;DHT22;12030;50.376;8.762;2023-08-06T12:14:51;17.50;99.90
23703;DHT22;12030;50.376;8.762;2023-08-06T12:17:16;17.10;99.90
23703;DHT22;12030;50.376;8.762;2023-08-06T12:19:44;16.80;99.90
23703;DHT22;12030;50.376;8.762;2023-08-06T12:22:10;16.60;99.90
23703;DHT22;12030;50.376;8.762;2023-08-06T12:24:36;16.50;99.90
23703;DHT22;12030;50.376;8.762;2023-08-06T12:27:01;16.40;99.90
23703;DHT22;12030;50.376;8.762;2023-08-06T12:29:28;16.20;99.90
23703;DHT22;12030;50.376;8.762;2023-08-06T12:31:53;16.10;99.90
23703;DHT22;12030;50.376;8.762;2023-08-06T12:34:19;16.00;99.90
23703;DHT22;12030;50.376;8.762;2023-08-06T12:36:44;15.90;99.90
23703;DHT22;12030;50.376;8.762;2023-08-06T12:39:10;15.80;99.90
23703;DHT22;12030;50.376;8.762;2023-08-06T12:41:36;15.80;99.90
23703;DHT22;12030;50.376;8.762;2023-08-06T12:44:01;15.70;99.90
23703;DHT22;12030;50.376;8.762;2023-08-06T12:46:27;15.60;99.90
23703;DHT22;12030;50.376;8.762;2023-08-06T12:48:52;15.50;99.90
23703;DHT22;12030;50.376;8.762;2023-08-06T12:51:18;15.50;99.90
23703;DHT22;12030;50.376;8.762;2023-08-06T12:53:43;15.50;99.90
23703;DHT22;12030;50.376;8.762;2023-08-06T12:56:09;15.50;99.90
23703;DHT22;12030;50.376;8.762;2023-08-06T12:58:34;15.40;99.90
23703;DHT22;12030;50.376;8.762;2023-08-06T13:01:00;15.40;99.90
23703;DHT22;12030;50.376;8.762;2023-08-06T13:03:25;15.40;99.90
23703;DHT22;12030;50.376;8.762;2023-08-06T13:05:51;15.30;99.90
23703;DHT22;12030;50.376;8.762;2023-08-06T13:08:17;15.20;99.90
23703;DHT22;12030;50.376;8.762;2023-08-06T13:10:43;15.20;99.90
23703;DHT22;12030;50.376;8.762;2023-08-06T13:13:08;15.20;99.90
23703;DHT22;12030;50.376;8.762;2023-08-06T13:15:35;15.10;99.90
23703;DHT22;12030;50.376;8.762;2023-08-06T13:18:01;15.10;99.90
23703;DHT22;12030;50.376;8.762;2023-08-06T13:20:27;15.10;99.90
23703;DHT22;12030;50.376;8.762;2023-08-06T13:22:52;15.10;99.90
23703;DHT22;12030;50.376;8.762;2023-08-06T13:25:19;15.00;99.90
23703;DHT22;12030;50.376;8.762;2023-08-06T13:27:44;15.00;99.90
23703;DHT22;12030;50.376;8.762;2023-08-06T13:30:11;15.00;99.90
23703;DHT22;12030;50.376;8.762;2023-08-06T13:32:36;15.00;99.90
23703;DHT22;12030;50.376;8.762;2023-08-06T13:35:05;14.90;99.90
23703;DHT22;12030;50.376;8.762;2023-08-06T13:37:31;14.90;99.90
23703;DHT22;12030;50.376;8.762;2023-08-06T13:39:56;15.00;99.90
23703;DHT22;12030;50.376;8.762;2023-08-06T13:42:22;14.90;99.90
23703;DHT22;12030;50.376;8.762;2023-08-06T13:44:47;14.90;99.90
23703;DHT22;12030;50.376;8.762;2023-08-06T13:47:13;14.90;99.90
23703;DHT22;12030;50.376;8.762;2023-08-06T13:49:38;15.00;99.90
23703;DHT22;12030;50.376;8.762;2023-08-06T13:52:04;15.00;99.90
23703;DHT22;12030;50.376;8.762;2023-08-06T13:54:30;14.90;99.90
23703;DHT22;12030;50.376;8.762;2023-08-06T13:56:56;15.00;99.90
23703;DHT22;12030;50.376;8.762;2023-08-06T13:59:21;15.00;99.90
23703;DHT22;12030;50.376;8.762;2023-08-06T14:01:49;15.10;99.90
23703;DHT22;12030;50.376;8.762;2023-08-06T14:04:15;15.00;99.90
23703;DHT22;12030;50.376;8.762;2023-08-06T14:06:41;15.10;99.90
23703;DHT22;12030;50.376;8.762;2023-08-06T14:09:06;15.10;99.90
23703;DHT22;12030;50.376;8.762;2023-08-06T14:11:32;15.10;99.90
23703;DHT22;12030;50.376;8.762;2023-08-06T14:13:57;15.20;99.90
23703;DHT22;12030;50.376;8.762;2023-08-06T14:16:23;15.20;99.90
23703;DHT22;12030;50.376;8.762;2023-08-06T14:18:48;15.20;99.90
23703;DHT22;12030;50.376;8.762;2023-08-06T14:21:14;15.30;99.90
23703;DHT22;12030;50.376;8.762;2023-08-06T14:23:40;15.40;99.90
23703;DHT22;12030;50.376;8.762;2023-08-06T14:26:07;15.50;99.90
23703;DHT22;12030;50.376;8.762;2023-08-06T14:28:33;15.50;99.90
23703;DHT22;12030;50.376;8.762;2023-08-06T14:30:58;15.50;99.90
23703;DHT22;12030;50.376;8.762;2023-08-06T14:33:24;15.60;99.90
23703;DHT22;12030;50.376;8.762;2023-08-06T14:35:49;15.60;99.90
23703;DHT22;12030;50.376;8.762;2023-08-06T14:38:15;15.70;99.90
23703;DHT22;12030;50.376;8.762;2023-08-06T14:40:43;15.70;99.90
23703;DHT22;12030;50.376;8.762;2023-08-06T14:43:09;15.80;99.90
23703;DHT22;12030;50.376;8.762;2023-08-06T14:45:38;15.70;99.90
23703;DHT22;12030;50.376;8.762;2023-08-06T14:48:04;15.80;99.90
23703;DHT22;12030;50.376;8.762;2023-08-06T14:50:29;15.60;99.90
23703;DHT22;12030;50.376;8.762;2023-08-06T14:52:55;15.80;99.90
23703;DHT22;12030;50.376;8.762;2023-08-06T14:55:24;15.70;99.90
23703;DHT22;12030;50.376;8.762;2023-08-06T14:57:51;15.80;99.90
23703;DHT22;12030;50.376;8.762;2023-08-06T15:00:17;15.70;99.90
23703;DHT22;12030;50.376;8.762;2023-08-06T15:02:42;15.70;99.90
23703;DHT22;12030;50.376;8.762;2023-08-06T15:05:08;15.70;99.90
23703;DHT22;12030;50.376;8.762;2023-08-06T15:07:33;15.70;99.90
23703;DHT22;12030;50.376;8.762;2023-08-06T15:10:04;15.70;99.90
23703;DHT22;12030;50.376;8.762;2023-08-06T15:12:30;15.70;99.90
23703;DHT22;12030;50.376;8.762;2023-08-06T15:14:56;15.70;99.90
23703;DHT22;12030;50.376;8.762;2023-08-06T15:17:22;15.80;99.90
23703;DHT22;12030;50.376;8.762;2023-08-06T15:19:48;15.70;99.90
23703;DHT22;12030;50.376;8.762;2023-08-06T15:22:14;15.80;99.90
23703;DHT22;12030;50.376;8.762;2023-08-06T15:24:39;15.80;99.90
23703;DHT22;12030;50.376;8.762;2023-08-06T15:27:08;15.80;99.90
23703;DHT22;12030;50.376;8.762;2023-08-06T15:29:34;15.80;99.90
23703;DHT22;12030;50.376;8.762;2023-08-06T15:32:00;15.80;99.90
23703;DHT22;12030;50.376;8.762;2023-08-06T15:34:25;15.80;99.90
23703;DHT22;12030;50.376;8.762;2023-08-06T15:36:51;15.80;99.90